Strona główna
METAR-TAF:

METAR-TAF

Lotnisko :

Central Park

Nowy Jork, Nowy Jork, Stany Zjednoczone

Szerokość geograficzna: 40-47-00N, Długość geograficzna: 073-58-00W, wysokość: 47 m

Aktualna obserwacja pogody

Raport powstał 11 minut temu, godzina 03:51 UTC
Wiatr 3 kt z kierunków zmiennych
Temperatura 13°C
Wilgotność 77%
Ciśnienie 1011 hPa
Widzialność: 16.1 km
bezchmurnie

METAR: KNYC 120351Z AUTO VRB03KT 10SM CLR 13/09 A2986 RMK AO2 SLP101 T01330094 $

czas: 23:02 (04:02 UTC)


TAF: brakujący

Obserwacja i prognoza pogody dla ponad 4000 lotnisk (raport METAR i TAF).

Dostępne stacje oznaczono żółtymi i czerwonymi punktami na mapie.

Najedź kursorem aby zobaczyć nazwę stacji.

Kliknij aby zobaczyć obserwacje i prognozy pogody.

Aby zmienić mapę: kliknij na zielony przycisk z czarnym krzyżykiem, aby powiększyć; na zielony przycisk z myślnikiem, aby pomniejszyć; na zielone strzałki, aby przejść do map sąsiednich.


METAR-TAF: